Time;durP1;ratioP1;P1;durP2;ratioP2;P2;SDS_P1;SDS_P2;PMS_P1;PMS_P2;Temp;Humidity;BMP_temperature;BMP_pressure;BME280_temperature;BME280_humidity;BME280_pressure;Samples;Min_cycle;Max_cycle;Signal;HPM_P1;HPM_P2
2022/11/25 00:02:18;;;;;;;20.13;11.30;;;6.10;96.30;;;;;;4967390;28;20050;-71
2022/11/25 00:04:44;;;;;;;19.50;11.95;;;6.10;96.30;;;;;;4961436;28;20388;-71
2022/11/25 00:07:10;;;;;;;19.92;11.63;;;6.10;96.40;;;;;;4964532;28;20042;-71
2022/11/25 00:09:36;;;;;;;20.70;10.90;;;6.10;96.30;;;;;;4966640;28;20034;-71
2022/11/25 00:12:02;;;;;;;18.20;10.00;;;6.10;96.40;;;;;;4969774;28;20030;-71
2022/11/25 00:14:28;;;;;;;18.27;10.75;;;6.10;96.30;;;;;;4970414;28;20049;-71
2022/11/25 00:16:53;;;;;;;18.30;12.02;;;6.20;96.40;;;;;;4967340;28;20038;-71
2022/11/25 00:19:19;;;;;;;23.27;11.25;;;6.20;96.20;;;;;;4966767;28;20125;-71
2022/11/25 00:21:45;;;;;;;17.00;10.35;;;6.20;96.30;;;;;;4963792;28;20054;-71
2022/11/25 00:24:14;;;;;;;17.63;10.50;;;6.20;96.30;;;;;;4963003;28;20069;-71
2022/11/25 00:26:40;;;;;;;17.58;10.60;;;6.20;96.40;;;;;;4963201;28;20517;-71
2022/11/25 00:29:07;;;;;;;16.40;10.07;;;6.30;96.30;;;;;;4980128;28;20039;-71
2022/11/25 00:31:36;;;;;;;17.35;9.30;;;6.30;96.20;;;;;;4981351;28;20132;-71
2022/11/25 00:34:02;;;;;;;18.95;10.95;;;6.30;96.20;;;;;;4964142;28;20442;-71
2022/11/25 00:36:33;;;;;;;16.23;9.25;;;6.30;96.30;;;;;;4966439;28;20625;-71
2022/11/25 00:39:04;;;;;;;14.75;10.30;;;6.30;96.20;;;;;;4963121;28;20042;-71
2022/11/25 00:44:35;;;;;;;16.00;9.77;;;6.30;96.30;;;;;;4960731;28;20035;-71
2022/11/25 00:47:02;;;;;;;19.77;10.10;;;6.30;96.40;;;;;;4962013;28;20038;-71
2022/11/25 00:49:28;;;;;;;17.00;10.38;;;6.30;96.60;;;;;;4982847;28;20042;-72
2022/11/25 00:51:54;;;;;;;16.20;10.18;;;6.30;96.60;;;;;;4979892;28;20105;-71
2022/11/25 00:54:20;;;;;;;16.63;10.50;;;6.40;96.60;;;;;;4965366;28;20495;-71
2022/11/25 00:56:48;;;;;;;17.45;10.27;;;6.40;96.70;;;;;;4962683;28;20493;-71
2022/11/25 00:59:13;;;;;;;16.65;9.82;;;6.30;96.30;;;;;;4965343;28;20121;-72
2022/11/25 01:01:39;;;;;;;15.57;10.20;;;6.30;96.10;;;;;;4963387;28;20570;-71
2022/11/25 01:04:05;;;;;;;16.17;9.93;;;6.30;96.00;;;;;;4962758;28;20047;-71
2022/11/25 01:06:33;;;;;;;15.88;9.50;;;6.20;95.90;;;;;;4962105;28;20809;-72
2022/11/25 01:08:58;;;;;;;15.15;8.77;;;6.20;95.70;;;;;;4964250;28;20430;-71
2022/11/25 01:11:24;;;;;;;16.95;10.25;;;6.10;95.60;;;;;;4977796;28;20030;-71
2022/11/25 01:13:53;;;;;;;15.02;8.25;;;6.00;95.70;;;;;;4961627;28;20030;-71
2022/11/25 01:16:21;;;;;;;13.32;8.32;;;5.90;95.90;;;;;;4965655;28;20035;-71
2022/11/25 01:18:47;;;;;;;14.90;8.75;;;5.80;96.20;;;;;;4977452;28;20058;-72
2022/11/25 01:21:18;;;;;;;18.42;9.23;;;5.70;96.30;;;;;;4963903;28;20050;-71
2022/11/25 01:23:45;;;;;;;19.60;10.73;;;5.70;96.40;;;;;;4962097;28;20074;-72
2022/11/25 01:26:14;;;;;;;17.20;10.35;;;5.70;96.70;;;;;;4977851;28;20112;-72
2022/11/25 01:28:40;;;;;;;19.83;9.68;;;5.70;96.80;;;;;;4959888;28;21016;-72
2022/11/25 01:31:15;;;;;;;17.75;10.85;;;5.70;96.90;;;;;;4964341;28;20035;-71
2022/11/25 01:33:41;;;;;;;14.10;9.23;;;5.70;96.90;;;;;;4962360;28;20145;-71
2022/11/25 01:36:10;;;;;;;16.70;10.27;;;5.70;96.80;;;;;;4967983;28;20026;-72
2022/11/25 01:38:37;;;;;;;16.20;9.77;;;5.60;96.70;;;;;;4962747;28;20781;-71
2022/11/25 01:41:05;;;;;;;17.30;11.02;;;5.60;96.50;;;;;;4962137;28;20149;-71
2022/11/25 01:43:31;;;;;;;15.88;9.52;;;5.60;96.30;;;;;;4961630;28;20125;-71
2022/11/25 01:46:17;;;;;;;18.10;10.10;;;5.50;96.00;;;;;;4961446;28;20034;-71
2022/11/25 01:48:55;;;;;;;16.23;10.30;;;5.40;96.20;;;;;;4962405;28;20038;-71
2022/11/25 01:51:28;;;;;;;16.17;9.70;;;5.30;96.40;;;;;;4969577;28;20950;-72
2022/11/25 01:53:58;;;;;;;16.15;10.18;;;5.20;96.30;;;;;;4965961;28;20443;-71
2022/11/25 01:56:26;;;;;;;20.02;10.65;;;5.20;96.60;;;;;;4984022;28;20035;-71
2022/11/25 01:58:52;;;;;;;17.92;10.02;;;5.20;96.90;;;;;;4965487;28;20058;-71
2022/11/25 02:01:20;;;;;;;18.77;10.20;;;5.20;97.20;;;;;;4965786;28;20093;-72
2022/11/25 02:03:49;;;;;;;20.75;11.25;;;5.20;97.30;;;;;;4968247;28;20077;-71
2022/11/25 02:06:28;;;;;;;16.65;9.27;;;5.20;97.00;;;;;;4971727;28;20788;-72
2022/11/25 02:09:04;;;;;;;14.60;9.45;;;5.20;97.10;;;;;;4969728;28;20117;-71
2022/11/25 02:11:32;;;;;;;16.10;9.48;;;5.20;97.10;;;;;;4984364;28;20104;-72
2022/11/25 02:13:59;;;;;;;15.05;8.73;;;5.30;97.30;;;;;;4965994;28;20904;-71
2022/11/25 02:16:25;;;;;;;15.82;9.63;;;5.30;97.20;;;;;;4966600;28;20590;-71
2022/11/25 02:18:51;;;;;;;15.98;9.13;;;5.40;97.10;;;;;;4965303;28;20101;-71
2022/11/25 02:21:24;;;;;;;14.65;8.93;;;5.40;97.00;;;;;;4964435;28;20907;-71
2022/11/25 02:24:32;;;;;;;15.88;9.60;;;5.40;97.10;;;;;;4967345;28;20034;-71
2022/11/25 02:27:00;;;;;;;14.40;9.40;;;5.50;97.10;;;;;;4976008;28;20050;-72
2022/11/25 02:29:27;;;;;;;14.73;9.15;;;5.50;97.30;;;;;;4968928;28;20035;-71
2022/11/25 02:31:53;;;;;;;15.13;8.70;;;5.60;96.80;;;;;;4980841;28;20038;-71
2022/11/25 02:34:18;;;;;;;17.75;9.63;;;5.70;96.80;;;;;;4964954;28;20035;-71
2022/11/25 02:36:44;;;;;;;16.75;9.75;;;5.70;96.90;;;;;;4981118;28;20050;-72
2022/11/25 02:39:11;;;;;;;16.88;8.57;;;5.70;97.00;;;;;;4963947;28;20053;-71
2022/11/25 02:41:45;;;;;;;15.68;8.93;;;5.70;97.00;;;;;;4983895;28;20693;-71
2022/11/25 02:44:11;;;;;;;18.42;9.90;;;5.80;97.10;;;;;;4983492;28;20515;-71
2022/11/25 02:46:38;;;;;;;14.98;9.23;;;5.80;97.00;;;;;;4960884;28;20048;-71
2022/11/25 02:49:04;;;;;;;14.85;9.52;;;5.80;97.00;;;;;;4966156;28;20101;-71
2022/11/25 02:51:31;;;;;;;15.30;9.38;;;5.80;97.00;;;;;;4964598;28;20159;-72
2022/11/25 02:53:59;;;;;;;16.80;9.20;;;5.90;96.90;;;;;;4981843;28;20117;-71
2022/11/25 02:56:32;;;;;;;13.82;9.02;;;5.90;96.80;;;;;;4981150;28;20418;-71
2022/11/25 02:58:58;;;;;;;16.35;9.80;;;5.90;96.80;;;;;;4964048;28;20050;-72
2022/11/25 03:01:27;;;;;;;11.88;7.40;;;5.90;96.80;;;;;;4982933;28;20038;-71
2022/11/25 03:03:52;;;;;;;11.43;7.80;;;6.00;96.90;;;;;;4964798;28;20039;-71
2022/11/25 03:06:18;;;;;;;14.32;9.00;;;6.00;97.00;;;;;;4965096;28;20604;-72
2022/11/25 03:08:44;;;;;;;15.02;8.27;;;6.00;97.00;;;;;;4966949;28;20026;-72
2022/11/25 03:11:12;;;;;;;12.77;7.88;;;6.00;96.90;;;;;;4967494;28;20031;-71
2022/11/25 03:13:37;;;;;;;12.85;8.63;;;6.10;97.00;;;;;;4965331;28;20069;-71
2022/11/25 03:16:04;;;;;;;10.48;7.28;;;6.10;96.90;;;;;;4965022;28;20035;-72
2022/11/25 03:18:29;;;;;;;10.98;7.72;;;6.10;96.80;;;;;;4980150;28;20038;-71
2022/11/25 03:20:55;;;;;;;12.93;7.80;;;6.10;96.80;;;;;;4965017;28;20043;-71
2022/11/25 03:23:23;;;;;;;12.02;8.20;;;6.10;97.00;;;;;;4980789;28;20039;-72
2022/11/25 03:25:53;;;;;;;13.02;7.70;;;6.10;97.00;;;;;;4968707;28;20050;-71
2022/11/25 03:28:19;;;;;;;10.50;6.60;;;6.20;96.90;;;;;;4971953;28;20035;-72
2022/11/25 03:30:45;;;;;;;11.70;7.35;;;6.20;96.90;;;;;;4966213;28;21089;-72
2022/11/25 03:33:11;;;;;;;10.88;7.00;;;6.20;96.90;;;;;;4979801;28;20109;-71
2022/11/25 03:35:37;;;;;;;11.43;7.32;;;6.20;96.90;;;;;;4962930;28;20142;-71
2022/11/25 03:38:03;;;;;;;12.40;8.20;;;6.20;96.90;;;;;;4978679;28;20041;-71
2022/11/25 03:40:33;;;;;;;15.75;8.93;;;6.20;96.90;;;;;;4980876;28;20042;-71
2022/11/25 03:42:59;;;;;;;17.25;10.10;;;6.20;96.70;;;;;;4965562;28;20089;-71
2022/11/25 03:45:24;;;;;;;12.68;8.73;;;6.20;96.60;;;;;;4968757;28;20062;-72
2022/11/25 03:47:50;;;;;;;12.88;8.70;;;6.30;96.30;;;;;;4967007;28;20125;-72
2022/11/25 03:50:16;;;;;;;13.13;7.38;;;6.30;96.40;;;;;;4979347;28;20045;-71
2022/11/25 03:52:44;;;;;;;10.60;7.20;;;6.30;96.40;;;;;;4962844;28;20030;-71
2022/11/25 03:55:11;;;;;;;12.77;8.00;;;6.30;96.50;;;;;;4978237;28;20112;-72
2022/11/25 03:57:40;;;;;;;11.75;7.80;;;6.30;96.60;;;;;;4984776;28;20026;-71
2022/11/25 04:00:08;;;;;;;14.45;9.05;;;6.20;96.70;;;;;;4983475;28;20078;-71
2022/11/25 04:02:43;;;;;;;15.82;7.82;;;6.30;96.60;;;;;;4967773;28;20062;-71
2022/11/25 04:05:10;;;;;;;13.63;8.40;;;6.30;96.50;;;;;;4981836;28;20133;-72
2022/11/25 04:07:35;;;;;;;11.80;7.57;;;6.30;96.60;;;;;;4966685;28;20925;-72
2022/11/25 04:10:03;;;;;;;10.82;7.60;;;6.30;96.50;;;;;;4978759;28;20039;-72
2022/11/25 04:12:46;;;;;;;8.80;6.57;;;6.30;96.50;;;;;;4978105;28;20031;-71
2022/11/25 04:15:16;;;;;;;12.57;7.50;;;6.30;96.80;;;;;;4978150;28;20062;-71
2022/11/25 04:17:42;;;;;;;12.45;7.85;;;6.30;97.00;;;;;;4968167;28;20054;-71
2022/11/25 04:20:09;;;;;;;12.45;7.18;;;6.30;97.10;;;;;;4981325;28;20836;-71
2022/11/25 04:22:35;;;;;;;11.38;6.88;;;6.30;97.10;;;;;;4966639;28;20066;-71
2022/11/25 04:25:04;;;;;;;11.05;7.07;;;6.30;97.00;;;;;;4979429;28;20495;-71
2022/11/25 04:27:30;;;;;;;9.90;7.03;;;6.30;97.00;;;;;;4978081;28;20160;-71
2022/11/25 04:29:56;;;;;;;12.45;7.80;;;6.40;97.00;;;;;;4978807;28;20039;-71
2022/11/25 04:32:23;;;;;;;13.35;8.40;;;6.40;96.90;;;;;;4977133;28;20444;-71
2022/11/25 04:34:49;;;;;;;14.73;8.07;;;6.40;96.90;;;;;;4967158;28;20114;-71
2022/11/25 04:37:15;;;;;;;11.70;7.88;;;6.40;96.70;;;;;;4966610;28;20744;-71
2022/11/25 04:39:42;;;;;;;11.55;7.50;;;6.40;96.60;;;;;;4963180;28;20491;-71
2022/11/25 04:42:31;;;;;;;11.85;7.50;;;6.40;96.50;;;;;;4962763;28;20495;-71
2022/11/25 04:44:59;;;;;;;12.45;7.20;;;6.30;96.30;;;;;;4979706;28;20121;-71
2022/11/25 04:47:27;;;;;;;9.90;6.65;;;6.40;96.20;;;;;;4963547;28;20039;-71
2022/11/25 04:49:52;;;;;;;10.55;6.65;;;6.30;96.30;;;;;;4977344;28;20045;-71
2022/11/25 04:52:19;;;;;;;9.80;6.57;;;6.20;96.40;;;;;;4978397;28;20050;-71
2022/11/25 04:54:46;;;;;;;10.45;6.97;;;6.20;96.50;;;;;;4963574;28;20054;-73
2022/11/25 04:57:13;;;;;;;12.25;7.25;;;6.10;96.40;;;;;;4963197;28;20835;-72
2022/11/25 04:59:42;;;;;;;10.57;6.65;;;6.10;96.50;;;;;;4959049;28;20854;-71
2022/11/25 05:02:20;;;;;;;13.55;7.25;;;6.10;96.60;;;;;;4979218;28;20842;-68
2022/11/25 05:05:05;;;;;;;11.00;7.47;;;6.10;96.50;;;;;;4958580;28;20496;-74
2022/11/25 05:07:31;;;;;;;13.85;7.88;;;6.00;96.40;;;;;;4979360;28;20045;-75
2022/11/25 05:09:57;;;;;;;12.50;8.07;;;6.00;96.80;;;;;;4976643;28;20566;-74
2022/11/25 05:12:35;;;;;;;12.07;7.90;;;6.00;96.90;;;;;;4983526;28;20037;-73
2022/11/25 05:15:06;;;;;;;16.33;8.68;;;5.90;97.30;;;;;;4978404;28;20845;-75
2022/11/25 05:17:35;;;;;;;13.13;7.63;;;5.90;97.50;;;;;;4979442;28;20113;-75
2022/11/25 05:20:03;;;;;;;19.10;9.27;;;5.90;97.40;;;;;;4954911;28;20190;-75
2022/11/25 05:22:32;;;;;;;13.50;7.93;;;5.90;97.40;;;;;;4982218;28;20039;-76
2022/11/25 05:24:58;;;;;;;14.50;7.97;;;5.80;97.20;;;;;;4963416;28;20062;-76
2022/11/25 05:27:26;;;;;;;14.48;8.73;;;5.70;97.30;;;;;;4965059;28;20037;-75
2022/11/25 05:29:53;;;;;;;18.50;8.80;;;5.70;97.50;;;;;;4976662;28;20129;-75
2022/11/25 05:32:19;;;;;;;15.07;9.30;;;5.60;97.80;;;;;;4976503;28;20137;-77
2022/11/25 05:34:45;;;;;;;15.55;8.60;;;5.60;98.20;;;;;;4982448;28;20276;-74
2022/11/25 05:37:13;;;;;;;12.25;7.93;;;5.60;98.10;;;;;;4981847;28;20094;-75
2022/11/25 05:39:46;;;;;;;12.45;8.15;;;5.60;98.10;;;;;;4963240;28;20092;-73
2022/11/25 05:42:24;;;;;;;14.40;8.95;;;5.60;98.00;;;;;;4962082;28;20034;-69
2022/11/25 05:44:50;;;;;;;12.93;8.32;;;5.60;97.90;;;;;;4975761;28;20843;-71
2022/11/25 05:47:16;;;;;;;16.25;8.82;;;5.60;97.80;;;;;;4974066;28;20042;-71
2022/11/25 05:49:42;;;;;;;15.50;8.80;;;5.60;97.80;;;;;;4961658;28;20042;-71
2022/11/25 05:52:07;;;;;;;14.10;8.80;;;5.50;97.80;;;;;;4961555;28;20034;-72
2022/11/25 05:54:41;;;;;;;13.60;8.13;;;5.50;97.80;;;;;;4960165;28;20030;-72
2022/11/25 05:57:07;;;;;;;14.48;8.57;;;5.50;97.70;;;;;;4978500;28;20407;-71
2022/11/25 05:59:49;;;;;;;13.32;8.73;;;5.50;97.60;;;;;;4953998;28;20031;-71
2022/11/25 06:02:38;;;;;;;11.55;7.97;;;5.50;97.50;;;;;;4958956;28;20035;-70
2022/11/25 06:05:05;;;;;;;16.17;8.90;;;5.40;97.30;;;;;;4959136;28;20042;-73
2022/11/25 06:07:31;;;;;;;17.15;10.05;;;5.40;97.10;;;;;;4960489;28;20039;-73
2022/11/25 06:09:57;;;;;;;13.52;8.70;;;5.30;97.00;;;;;;4958929;28;20042;-73
2022/11/25 06:12:23;;;;;;;16.05;9.25;;;5.30;96.40;;;;;;4979956;28;20041;-72
2022/11/25 06:14:50;;;;;;;14.77;8.68;;;5.20;96.30;;;;;;4964012;28;20027;-74
2022/11/25 06:17:16;;;;;;;13.55;7.82;;;5.10;96.40;;;;;;4964251;28;20038;-68
2022/11/25 06:20:04;;;;;;;13.98;7.95;;;5.10;96.60;;;;;;4959988;28;20061;-68
2022/11/25 06:22:30;;;;;;;14.02;8.27;;;5.00;96.80;;;;;;4974994;28;20062;-69
2022/11/25 06:24:56;;;;;;;14.75;8.30;;;5.00;97.10;;;;;;4956945;28;20077;-68
2022/11/25 06:27:22;;;;;;;13.00;7.85;;;5.00;97.30;;;;;;4972700;28;20082;-67
2022/11/25 06:29:48;;;;;;;13.50;8.35;;;5.00;97.40;;;;;;4958469;28;20126;-68
2022/11/25 06:32:13;;;;;;;14.27;7.85;;;4.90;97.40;;;;;;4958014;28;20031;-68
2022/11/25 06:34:50;;;;;;;13.55;7.80;;;5.00;97.50;;;;;;4958753;28;20578;-69
2022/11/25 06:37:49;;;;;;;14.07;7.95;;;5.00;97.40;;;;;;4960866;28;20038;-68
2022/11/25 06:40:14;;;;;;;13.30;8.20;;;5.00;97.70;;;;;;4965476;28;20045;-69
2022/11/25 06:42:42;;;;;;;16.42;8.38;;;5.00;97.90;;;;;;4962356;28;20037;-68
2022/11/25 06:45:08;;;;;;;15.82;8.55;;;5.00;97.90;;;;;;4963997;28;20031;-71
2022/11/25 06:47:34;;;;;;;13.55;8.20;;;5.00;98.10;;;;;;4964117;28;20038;-70
2022/11/25 06:50:00;;;;;;;14.73;8.52;;;5.10;98.00;;;;;;4961720;28;20046;-68
2022/11/25 06:52:25;;;;;;;15.95;9.35;;;5.10;97.90;;;;;;4964992;28;20553;-68
2022/11/25 06:54:52;;;;;;;12.75;8.68;;;5.10;97.90;;;;;;4963796;28;20039;-69
2022/11/25 06:57:18;;;;;;;23.98;11.23;;;5.10;97.60;;;;;;4962093;28;20039;-69
2022/11/25 06:59:44;;;;;;;17.08;9.93;;;5.10;97.60;;;;;;4962893;28;20031;-68
2022/11/25 07:02:11;;;;;;;16.88;9.75;;;5.10;97.80;;;;;;4963155;28;20038;-69
2022/11/25 07:04:39;;;;;;;17.17;9.32;;;5.10;98.10;;;;;;4963709;28;20039;-69
2022/11/25 07:07:05;;;;;;;19.00;9.27;;;5.20;98.30;;;;;;4962486;28;20034;-68
2022/11/25 07:09:30;;;;;;;16.88;9.65;;;5.20;98.20;;;;;;4963174;28;20554;-69
2022/11/25 07:11:56;;;;;;;18.63;9.85;;;5.20;98.20;;;;;;4962049;28;20030;-70
2022/11/25 07:14:22;;;;;;;15.60;9.07;;;5.30;98.30;;;;;;4962760;28;20142;-69
2022/11/25 07:16:48;;;;;;;13.73;8.68;;;5.30;98.40;;;;;;4963434;28;20070;-70
2022/11/25 07:19:16;;;;;;;14.02;8.25;;;5.40;98.30;;;;;;4963438;28;20447;-68
2022/11/25 07:21:44;;;;;;;14.25;8.55;;;5.40;98.20;;;;;;4967162;28;20082;-69
2022/11/25 07:24:15;;;;;;;12.90;8.13;;;5.40;98.20;;;;;;4963921;28;20043;-69
2022/11/25 07:26:42;;;;;;;11.70;7.90;;;5.40;98.20;;;;;;4960966;28;20042;-69
2022/11/25 07:29:13;;;;;;;14.02;8.52;;;5.40;98.20;;;;;;4962893;28;20047;-69
2022/11/25 07:31:42;;;;;;;16.40;8.93;;;5.50;98.00;;;;;;4964294;28;20785;-73
2022/11/25 07:34:11;;;;;;;23.50;7.00;;;5.50;97.80;;;;;;4962167;28;20031;-68
2022/11/25 07:36:37;;;;;;;12.48;7.63;;;5.40;97.80;;;;;;4963961;28;20045;-71
2022/11/25 07:39:09;;;;;;;10.75;7.75;;;5.50;97.80;;;;;;4963970;28;20034;-71
2022/11/25 07:41:35;;;;;;;10.50;7.15;;;5.40;97.80;;;;;;4962374;28;20797;-72
2022/11/25 07:44:04;;;;;;;12.68;7.47;;;5.40;97.70;;;;;;4963145;28;20038;-72
2022/11/25 07:46:44;;;;;;;7.53;5.63;;;5.40;97.80;;;;;;4969377;28;20740;-72
2022/11/25 07:49:23;;;;;;;8.38;5.55;;;5.50;97.70;;;;;;4961506;28;20500;-70
2022/11/25 07:51:55;;;;;;;20.98;5.97;;;5.50;97.70;;;;;;4962059;28;20038;-72
2022/11/25 07:54:22;;;;;;;23.75;5.80;;;5.50;97.70;;;;;;4961160;28;20042;-71
2022/11/25 07:56:49;;;;;;;7.70;5.32;;;5.60;97.60;;;;;;4963086;28;20035;-76
2022/11/25 07:59:20;;;;;;;14.70;6.35;;;5.60;97.50;;;;;;4963067;28;20050;-71
2022/11/25 08:01:52;;;;;;;9.45;6.50;;;5.60;97.80;;;;;;4965198;28;20034;-71
2022/11/25 08:04:18;;;;;;;8.68;5.97;;;5.70;97.60;;;;;;4962480;28;20777;-71
2022/11/25 08:06:45;;;;;;;29.35;6.47;;;5.70;97.60;;;;;;4964891;28;20035;-71
2022/11/25 08:09:14;;;;;;;8.27;5.68;;;5.80;97.50;;;;;;4963740;28;20078;-71
2022/11/25 08:11:41;;;;;;;9.38;6.70;;;5.80;97.40;;;;;;4961854;28;20426;-71
2022/11/25 08:14:09;;;;;;;11.40;6.30;;;5.90;97.40;;;;;;4962454;28;20027;-71
2022/11/25 08:16:35;;;;;;;11.13;7.07;;;6.00;97.70;;;;;;4963038;28;20101;-71
2022/11/25 08:19:03;;;;;;;10.68;6.47;;;6.10;97.30;;;;;;4961483;28;20043;-70
2022/11/25 08:21:28;;;;;;;12.13;6.85;;;6.20;97.20;;;;;;4960600;28;20077;-70
2022/11/25 08:23:55;;;;;;;8.20;6.18;;;6.30;97.20;;;;;;4963400;28;20154;-72
2022/11/25 08:26:22;;;;;;;13.00;7.03;;;6.40;97.30;;;;;;4964424;28;20069;-72
2022/11/25 08:28:48;;;;;;;9.73;6.70;;;6.50;97.20;;;;;;4961351;28;20053;-71
2022/11/25 08:31:27;;;;;;;10.80;7.05;;;6.60;97.30;;;;;;4976550;28;20040;-71
2022/11/25 08:33:54;;;;;;;9.77;6.30;;;6.80;97.30;;;;;;4962034;28;20415;-71
2022/11/25 08:36:20;;;;;;;14.95;7.60;;;6.90;97.30;;;;;;4966558;28;20451;-71
2022/11/25 08:38:48;;;;;;;10.30;7.20;;;7.00;97.20;;;;;;4961967;28;20454;-70
2022/11/25 08:41:27;;;;;;;11.35;6.53;;;7.20;97.20;;;;;;4962757;28;20062;-70
2022/11/25 08:43:54;;;;;;;11.93;6.75;;;7.40;97.10;;;;;;4949570;28;20101;-71
2022/11/25 08:46:23;;;;;;;10.13;6.13;;;7.60;96.70;;;;;;4960336;28;20035;-71
2022/11/25 08:48:49;;;;;;;11.15;6.88;;;7.70;96.60;;;;;;4961101;28;20137;-71
2022/11/25 08:51:21;;;;;;;11.52;6.80;;;7.80;96.00;;;;;;4961160;28;20081;-69
2022/11/25 08:53:50;;;;;;;10.77;6.68;;;7.90;96.20;;;;;;4961050;28;20562;-70
2022/11/25 08:56:16;;;;;;;10.90;6.43;;;8.10;96.10;;;;;;4959866;28;20062;-71
2022/11/25 08:58:42;;;;;;;12.77;7.07;;;8.30;95.50;;;;;;4955556;28;20047;-70
2022/11/25 09:01:09;;;;;;;9.95;5.85;;;8.60;94.80;;;;;;4959571;28;20078;-71
2022/11/25 09:03:38;;;;;;;9.50;5.95;;;9.10;94.30;;;;;;4960640;28;20038;-69
2022/11/25 09:06:05;;;;;;;10.35;5.55;;;10.00;92.70;;;;;;4960378;28;20070;-70
2022/11/25 09:08:31;;;;;;;13.63;6.20;;;11.30;90.30;;;;;;4960610;28;20031;-70
2022/11/25 09:10:58;;;;;;;8.82;5.47;;;12.50;85.30;;;;;;4959647;28;20035;-70
2022/11/25 09:13:24;;;;;;;9.50;5.88;;;13.60;79.00;;;;;;4959473;28;20026;-73
2022/11/25 09:15:50;;;;;;;11.27;5.32;;;14.60;74.30;;;;;;4959767;28;20967;-70
2022/11/25 09:18:18;;;;;;;6.45;5.20;;;15.00;70.70;;;;;;4963269;28;20046;-71
2022/11/25 09:20:43;;;;;;;8.15;5.40;;;15.20;69.10;;;;;;4962837;28;20043;-72
2022/11/25 09:23:09;;;;;;;8.52;4.78;;;15.40;68.70;;;;;;4960568;28;20039;-72
2022/11/25 09:25:35;;;;;;;9.38;5.07;;;15.70;67.10;;;;;;4964936;28;20034;-67
2022/11/25 09:28:01;;;;;;;9.30;5.00;;;16.50;65.40;;;;;;4963141;28;20042;-70
2022/11/25 09:30:27;;;;;;;7.32;4.65;;;17.20;62.20;;;;;;4958656;28;20066;-71
2022/11/25 09:32:54;;;;;;;8.20;4.80;;;17.70;60.10;;;;;;4960414;28;20126;-73
2022/11/25 09:35:21;;;;;;;7.72;4.75;;;18.00;59.00;;;;;;4960287;28;20042;-68
2022/11/25 09:37:47;;;;;;;9.25;4.88;;;18.40;57.20;;;;;;4960561;28;20045;-72
2022/11/25 09:40:31;;;;;;;8.43;4.30;;;18.80;55.90;;;;;;4960388;28;20026;-73
2022/11/25 09:49:20;;;;;;;6.90;4.15;;;19.90;51.10;;;;;;4959902;28;20046;-72
2022/11/25 09:52:04;;;;;;;7.90;3.97;;;19.70;50.90;;;;;;4956565;28;20062;-73
2022/11/25 09:54:51;;;;;;;8.52;4.05;;;19.50;51.90;;;;;;4958332;28;20027;-77
2022/11/25 09:57:21;;;;;;;;;;;19.70;52.00;;;;;;4959082;28;20134;-73
2022/11/25 10:00:06;;;;;;;10.30;4.80;;;19.50;51.00;;;;;;4958967;28;20214;-73
2022/11/25 10:03:03;;;;;;;9.82;3.97;;;19.10;52.00;;;;;;4958256;28;20046;-74
2022/11/25 10:05:57;;;;;;;7.15;3.92;;;18.90;51.50;;;;;;4961894;28;20034;-75
2022/11/25 10:08:30;;;;;;;6.45;4.10;;;19.10;52.00;;;;;;4971015;28;20481;-74
2022/11/25 10:11:20;;;;;;;8.82;3.78;;;19.20;52.50;;;;;;4960905;28;20069;-74
2022/11/25 10:14:07;;;;;;;7.72;3.88;;;18.50;53.20;;;;;;4979146;28;20502;-75
2022/11/25 10:17:03;;;;;;;8.20;3.75;;;18.50;54.50;;;;;;4962941;28;20061;-74
2022/11/25 10:19:42;;;;;;;7.45;3.72;;;18.60;53.90;;;;;;4961135;28;20042;-75
2022/11/25 10:22:26;;;;;;;12.73;6.97;;;18.80;54.00;;;;;;4963654;28;20395;-75
2022/11/25 10:25:12;;;;;;;7.13;4.50;;;19.30;52.70;;;;;;4961382;28;20060;-75
2022/11/25 10:27:46;;;;;;;8.13;4.00;;;19.60;52.50;;;;;;4962607;28;20793;-74
2022/11/25 10:30:18;;;;;;;8.57;4.00;;;19.70;51.30;;;;;;4962820;28;20089;-74
2022/11/25 10:32:58;;;;;;;8.93;4.00;;;20.10;50.50;;;;;;4978125;28;20038;-74
2022/11/25 10:35:39;;;;;;;8.95;3.75;;;20.60;49.70;;;;;;4961525;28;20031;-74
2022/11/25 10:38:10;;;;;;;9.02;4.18;;;21.20;48.90;;;;;;4963115;28;20019;-74
2022/11/25 10:40:36;;;;;;;8.27;3.83;;;20.70;47.70;;;;;;4963993;28;20390;-73
2022/11/25 10:43:13;;;;;;;7.88;3.58;;;19.90;49.50;;;;;;4964976;28;20038;-73
2022/11/25 10:46:03;;;;;;;9.35;3.55;;;19.90;50.10;;;;;;4963504;28;20027;-73
2022/11/25 10:48:37;;;;;;;6.63;3.65;;;19.90;50.10;;;;;;4962442;28;20046;-73
2022/11/25 10:51:15;;;;;;;8.60;4.05;;;19.30;51.50;;;;;;4962701;28;20038;-70
2022/11/25 10:54:01;;;;;;;6.47;3.70;;;18.80;52.50;;;;;;4963903;28;20027;-74
2022/11/25 10:56:27;;;;;;;10.43;3.90;;;18.50;53.60;;;;;;4959587;28;20054;-74
2022/11/25 10:58:53;;;;;;;8.93;3.42;;;18.60;53.90;;;;;;4964647;28;20701;-73
2022/11/25 11:01:19;;;;;;;6.63;3.45;;;19.00;53.30;;;;;;4962664;28;20038;-73
2022/11/25 11:03:51;;;;;;;7.18;3.60;;;19.10;52.10;;;;;;4977567;28;20041;-73
2022/11/25 11:06:33;;;;;;;8.38;3.15;;;17.50;55.30;;;;;;4964312;28;20035;-73
2022/11/25 11:08:59;;;;;;;5.90;3.70;;;15.30;61.70;;;;;;4961168;28;20038;-73
2022/11/25 11:11:26;;;;;;;11.82;4.03;;;13.80;67.20;;;;;;4962860;28;20030;-73
2022/11/25 11:14:17;;;;;;;7.80;3.22;;;12.90;71.70;;;;;;4962289;28;20117;-72
2022/11/25 11:16:52;;;;;;;5.72;3.25;;;12.20;75.00;;;;;;4965576;28;20030;-71
2022/11/25 11:19:28;;;;;;;6.70;3.28;;;11.80;78.00;;;;;;4962281;28;20046;-72
2022/11/25 11:21:55;;;;;;;7.38;3.20;;;11.40;79.90;;;;;;4959439;28;20048;-73
2022/11/25 11:24:29;;;;;;;6.35;3.70;;;11.20;81.80;;;;;;4963907;28;20077;-73
2022/11/25 11:27:05;;;;;;;7.88;3.55;;;11.10;82.70;;;;;;4980474;28;20715;-73
2022/11/25 11:29:31;;;;;;;7.40;3.08;;;11.00;83.70;;;;;;4963165;28;20141;-73
2022/11/25 11:32:00;;;;;;;10.55;3.17;;;10.90;83.80;;;;;;4958850;28;20564;-73
2022/11/25 11:35:00;;;;;;;9.95;3.72;;;10.80;84.90;;;;;;4962591;28;20057;-73
2022/11/25 11:37:43;;;;;;;6.50;2.90;;;10.70;85.40;;;;;;4959219;28;20039;-73
2022/11/25 11:40:36;;;;;;;10.57;3.78;;;10.60;86.40;;;;;;4962911;28;20612;-73
2022/11/25 11:43:19;;;;;;;7.03;3.33;;;10.60;87.10;;;;;;4961791;28;20033;-73
2022/11/25 11:45:59;;;;;;;4.80;2.88;;;10.50;88.00;;;;;;4960223;28;20097;-72
2022/11/25 11:48:33;;;;;;;11.40;3.38;;;10.40;88.70;;;;;;4964867;28;20313;-72
2022/11/25 11:51:26;;;;;;;8.02;3.42;;;10.40;89.00;;;;;;4961633;28;20037;-72
2022/11/25 11:54:05;;;;;;;11.15;3.60;;;10.40;89.50;;;;;;4964573;28;20113;-73
2022/11/25 11:56:51;;;;;;;5.57;3.40;;;10.30;89.80;;;;;;4964632;28;20030;-72
2022/11/25 11:59:35;;;;;;;13.00;3.60;;;10.40;90.10;;;;;;4959283;28;20133;-73
2022/11/25 12:02:13;;;;;;;7.45;3.33;;;10.40;90.20;;;;;;4962141;28;20129;-73
2022/11/25 12:05:03;;;;;;;7.03;3.45;;;10.40;90.30;;;;;;4959406;28;20474;-73
2022/11/25 12:08:14;;;;;;;8.90;3.38;;;10.40;90.40;;;;;;4962004;28;20403;-73
2022/11/25 12:10:46;;;;;;;8.63;3.80;;;10.30;90.40;;;;;;4958237;28;20050;-73
2022/11/25 12:13:18;;;;;;;9.68;3.65;;;10.30;90.60;;;;;;4964859;28;20088;-74
2022/11/25 12:15:46;;;;;;;8.35;3.63;;;10.30;90.70;;;;;;4962240;28;20038;-72
2022/11/25 12:18:28;;;;;;;8.57;3.63;;;10.20;90.90;;;;;;4961486;28;20052;-72
2022/11/25 12:21:17;;;;;;;11.38;3.83;;;10.20;91.30;;;;;;4960170;28;20104;-73
2022/11/25 12:23:43;;;;;;;9.57;3.55;;;10.20;91.10;;;;;;4959634;28;20039;-71
2022/11/25 12:26:16;;;;;;;10.40;3.78;;;10.30;90.90;;;;;;4961542;28;20038;-71
2022/11/25 12:28:51;;;;;;;9.63;3.92;;;10.20;91.20;;;;;;4959978;28;20035;-73
2022/11/25 12:31:23;;;;;;;7.32;3.45;;;10.30;91.20;;;;;;4960501;28;20066;-72
2022/11/25 12:34:33;;;;;;;10.40;3.40;;;10.30;91.00;;;;;;4962118;28;20106;-73
2022/11/25 12:37:14;;;;;;;8.90;3.70;;;10.30;91.10;;;;;;4961539;28;20100;-74
2022/11/25 12:39:54;;;;;;;9.70;3.22;;;10.40;91.00;;;;;;4962149;28;20031;-76
2022/11/25 12:42:24;;;;;;;8.30;3.35;;;10.50;90.80;;;;;;4961544;28;20035;-74
2022/11/25 12:45:05;;;;;;;10.02;3.78;;;10.50;90.70;;;;;;4951955;28;20058;-74
2022/11/25 12:47:32;;;;;;;7.35;2.95;;;10.50;90.50;;;;;;4958145;28;20117;-72
2022/11/25 12:49:58;;;;;;;5.82;3.53;;;10.40;90.90;;;;;;4960902;28;20030;-72
2022/11/25 12:52:41;;;;;;;6.50;3.55;;;10.30;91.10;;;;;;4961116;28;20073;-72
2022/11/25 12:55:13;;;;;;;9.32;3.35;;;10.30;91.30;;;;;;4961577;28;20027;-72
2022/11/25 12:58:00;;;;;;;8.18;2.70;;;10.30;91.40;;;;;;4960790;28;20595;-67
2022/11/25 13:00:52;;;;;;;10.98;3.80;;;10.30;91.20;;;;;;4960225;28;20962;-73
2022/11/25 13:03:31;;;;;;;9.10;3.20;;;10.30;91.20;;;;;;4958626;28;20054;-73
2022/11/25 13:06:28;;;;;;;8.43;3.90;;;10.30;91.30;;;;;;4975711;28;20035;-72
2022/11/25 13:08:59;;;;;;;8.10;3.10;;;10.40;91.30;;;;;;4960121;28;20039;-72
2022/11/25 13:11:53;;;;;;;12.63;3.92;;;10.40;91.40;;;;;;4960465;28;20035;-73
2022/11/25 13:14:55;;;;;;;7.97;3.53;;;10.40;91.40;;;;;;4961807;28;20234;-74
2022/11/25 13:17:22;;;;;;;12.15;4.05;;;10.30;91.70;;;;;;4960295;28;20085;-73